sensor_id;sensor_type;location;lat;lon;timestamp;P1;durP1;ratioP1;P2;durP2;ratioP2
75112;SDS011;63692;47.338;8.520;2023-04-03T04:24:22;5.63;;;4.30;;
75112;SDS011;63692;47.338;8.520;2023-04-03T07:09:34;5.97;;;4.10;;
75112;SDS011;63692;47.338;8.520;2023-04-03T07:12:00;5.55;;;3.90;;
75112;SDS011;63692;47.338;8.520;2023-04-03T07:14:26;6.60;;;3.63;;
75112;SDS011;63692;47.338;8.520;2023-04-03T07:16:51;5.40;;;3.45;;
75112;SDS011;63692;47.338;8.520;2023-04-03T07:19:17;7.28;;;3.75;;
75112;SDS011;63692;47.338;8.520;2023-04-03T07:21:43;5.40;;;3.80;;
75112;SDS011;63692;47.338;8.520;2023-04-03T07:24:09;6.30;;;3.80;;
75112;SDS011;63692;47.338;8.520;2023-04-03T07:26:35;5.97;;;3.65;;
75112;SDS011;63692;47.338;8.520;2023-04-03T07:29:01;5.28;;;3.63;;
75112;SDS011;63692;47.338;8.520;2023-04-03T07:31:27;7.05;;;4.00;;
75112;SDS011;63692;47.338;8.520;2023-04-03T07:33:53;5.43;;;3.40;;
75112;SDS011;63692;47.338;8.520;2023-04-03T07:36:20;5.78;;;3.90;;
75112;SDS011;63692;47.338;8.520;2023-04-03T07:38:47;6.57;;;3.95;;
75112;SDS011;63692;47.338;8.520;2023-04-03T07:41:14;5.80;;;3.95;;
75112;SDS011;63692;47.338;8.520;2023-04-03T07:43:42;5.70;;;3.47;;
75112;SDS011;63692;47.338;8.520;2023-04-03T07:46:08;4.72;;;3.25;;
75112;SDS011;63692;47.338;8.520;2023-04-03T07:48:34;5.68;;;3.38;;
75112;SDS011;63692;47.338;8.520;2023-04-03T07:51:00;5.72;;;3.20;;
75112;SDS011;63692;47.338;8.520;2023-04-03T07:53:27;5.38;;;3.03;;
75112;SDS011;63692;47.338;8.520;2023-04-03T07:55:53;4.00;;;2.97;;
75112;SDS011;63692;47.338;8.520;2023-04-03T07:58:21;5.70;;;3.40;;
75112;SDS011;63692;47.338;8.520;2023-04-03T08:00:46;5.65;;;3.08;;
75112;SDS011;63692;47.338;8.520;2023-04-03T08:03:13;6.28;;;3.40;;
75112;SDS011;63692;47.338;8.520;2023-04-03T08:05:42;5.20;;;3.20;;
75112;SDS011;63692;47.338;8.520;2023-04-03T08:08:10;4.70;;;3.33;;
75112;SDS011;63692;47.338;8.520;2023-04-03T08:10:37;6.07;;;2.97;;
75112;SDS011;63692;47.338;8.520;2023-04-03T08:13:03;4.82;;;3.15;;
75112;SDS011;63692;47.338;8.520;2023-04-03T08:15:29;5.72;;;3.10;;
75112;SDS011;63692;47.338;8.520;2023-04-03T08:17:55;6.40;;;2.97;;
75112;SDS011;63692;47.338;8.520;2023-04-03T08:20:21;6.15;;;3.67;;
75112;SDS011;63692;47.338;8.520;2023-04-03T08:22:47;5.25;;;3.35;;
75112;SDS011;63692;47.338;8.520;2023-04-03T08:25:12;7.03;;;3.45;;
75112;SDS011;63692;47.338;8.520;2023-04-03T08:27:38;5.35;;;2.88;;
75112;SDS011;63692;47.338;8.520;2023-04-03T08:30:04;4.30;;;2.75;;
75112;SDS011;63692;47.338;8.520;2023-04-03T08:32:32;5.28;;;3.10;;
75112;SDS011;63692;47.338;8.520;2023-04-03T08:34:58;5.60;;;2.65;;
75112;SDS011;63692;47.338;8.520;2023-04-03T08:37:24;6.18;;;3.00;;
75112;SDS011;63692;47.338;8.520;2023-04-03T08:39:50;5.18;;;3.08;;
75112;SDS011;63692;47.338;8.520;2023-04-03T08:42:19;5.47;;;2.78;;
75112;SDS011;63692;47.338;8.520;2023-04-03T08:44:58;5.15;;;3.05;;
75112;SDS011;63692;47.338;8.520;2023-04-03T08:47:46;5.43;;;2.90;;
75112;SDS011;63692;47.338;8.520;2023-04-03T08:50:42;5.10;;;2.80;;
75112;SDS011;63692;47.338;8.520;2023-04-03T08:53:43;4.60;;;3.10;;
75112;SDS011;63692;47.338;8.520;2023-04-03T08:56:05;5.05;;;2.78;;
75112;SDS011;63692;47.338;8.520;2023-04-03T08:58:40;5.68;;;3.08;;
75112;SDS011;63692;47.338;8.520;2023-04-03T09:01:33;8.18;;;3.10;;
75112;SDS011;63692;47.338;8.520;2023-04-03T09:04:14;4.43;;;2.83;;
75112;SDS011;63692;47.338;8.520;2023-04-03T09:06:45;4.40;;;3.03;;
75112;SDS011;63692;47.338;8.520;2023-04-03T09:09:30;6.18;;;3.15;;
75112;SDS011;63692;47.338;8.520;2023-04-03T09:12:12;7.03;;;2.95;;
75112;SDS011;63692;47.338;8.520;2023-04-03T09:20:22;7.07;;;3.45;;
75112;SDS011;63692;47.338;8.520;2023-04-03T09:25:22;5.93;;;3.30;;
75112;SDS011;63692;47.338;8.520;2023-04-03T09:27:50;4.60;;;2.80;;
75112;SDS011;63692;47.338;8.520;2023-04-03T09:30:25;5.20;;;3.22;;
75112;SDS011;63692;47.338;8.520;2023-04-03T09:32:53;4.65;;;2.90;;
75112;SDS011;63692;47.338;8.520;2023-04-03T09:35:26;5.47;;;3.20;;
75112;SDS011;63692;47.338;8.520;2023-04-03T09:40:40;5.43;;;3.15;;
75112;SDS011;63692;47.338;8.520;2023-04-03T09:43:18;6.22;;;3.20;;
75112;SDS011;63692;47.338;8.520;2023-04-03T09:45:46;5.60;;;3.20;;
75112;SDS011;63692;47.338;8.520;2023-04-03T09:50:52;6.22;;;3.35;;
75112;SDS011;63692;47.338;8.520;2023-04-03T10:50:55;4.68;;;3.10;;
75112;SDS011;63692;47.338;8.520;2023-04-03T13:10:17;5.90;;;3.17;;
75112;SDS011;63692;47.338;8.520;2023-04-03T13:15:24;6.55;;;3.47;;
75112;SDS011;63692;47.338;8.520;2023-04-03T13:17:53;6.15;;;3.20;;
75112;SDS011;63692;47.338;8.520;2023-04-03T13:27:55;6.90;;;3.25;;
75112;SDS011;63692;47.338;8.520;2023-04-03T13:30:32;5.30;;;3.50;;
75112;SDS011;63692;47.338;8.520;2023-04-03T13:33:02;6.15;;;3.13;;
75112;SDS011;63692;47.338;8.520;2023-04-03T13:38:00;5.90;;;3.10;;
75112;SDS011;63692;47.338;8.520;2023-04-03T13:40:53;5.28;;;3.55;;
75112;SDS011;63692;47.338;8.520;2023-04-03T14:26:40;5.70;;;3.55;;
75112;SDS011;63692;47.338;8.520;2023-04-03T14:29:09;4.40;;;3.00;;
75112;SDS011;63692;47.338;8.520;2023-04-03T14:31:36;4.80;;;2.80;;
75112;SDS011;63692;47.338;8.520;2023-04-03T14:34:02;5.35;;;3.03;;
75112;SDS011;63692;47.338;8.520;2023-04-03T14:36:27;6.10;;;3.25;;
75112;SDS011;63692;47.338;8.520;2023-04-03T14:41:28;5.60;;;3.20;;
75112;SDS011;63692;47.338;8.520;2023-04-03T14:48:56;5.50;;;3.28;;
75112;SDS011;63692;47.338;8.520;2023-04-03T14:56:26;4.57;;;2.78;;
75112;SDS011;63692;47.338;8.520;2023-04-03T15:03:48;6.72;;;3.22;;
75112;SDS011;63692;47.338;8.520;2023-04-03T15:06:13;5.97;;;3.17;;
75112;SDS011;63692;47.338;8.520;2023-04-03T15:08:40;5.65;;;2.90;;
75112;SDS011;63692;47.338;8.520;2023-04-03T15:11:08;6.85;;;2.95;;
75112;SDS011;63692;47.338;8.520;2023-04-03T15:13:34;6.82;;;3.38;;
75112;SDS011;63692;47.338;8.520;2023-04-03T15:16:00;6.80;;;3.40;;
75112;SDS011;63692;47.338;8.520;2023-04-03T15:18:27;5.95;;;3.60;;
75112;SDS011;63692;47.338;8.520;2023-04-03T15:20:54;5.28;;;3.20;;
75112;SDS011;63692;47.338;8.520;2023-04-03T15:23:20;5.95;;;3.25;;
75112;SDS011;63692;47.338;8.520;2023-04-03T15:25:51;4.40;;;2.65;;
75112;SDS011;63692;47.338;8.520;2023-04-03T15:28:29;5.28;;;2.95;;
75112;SDS011;63692;47.338;8.520;2023-04-03T15:30:57;5.03;;;2.53;;
75112;SDS011;63692;47.338;8.520;2023-04-03T15:33:24;5.10;;;2.78;;
75112;SDS011;63692;47.338;8.520;2023-04-03T15:35:50;4.90;;;2.70;;
75112;SDS011;63692;47.338;8.520;2023-04-03T15:38:16;5.25;;;2.80;;
75112;SDS011;63692;47.338;8.520;2023-04-03T15:40:42;5.10;;;2.97;;
75112;SDS011;63692;47.338;8.520;2023-04-03T15:43:08;5.55;;;2.70;;
75112;SDS011;63692;47.338;8.520;2023-04-03T15:45:35;3.75;;;2.55;;
75112;SDS011;63692;47.338;8.520;2023-04-03T15:48:02;6.57;;;2.70;;
75112;SDS011;63692;47.338;8.520;2023-04-03T15:50:29;4.30;;;2.55;;
75112;SDS011;63692;47.338;8.520;2023-04-03T15:52:56;4.78;;;2.90;;
75112;SDS011;63692;47.338;8.520;2023-04-03T15:55:26;5.60;;;2.78;;
75112;SDS011;63692;47.338;8.520;2023-04-03T15:57:52;5.10;;;2.83;;
75112;SDS011;63692;47.338;8.520;2023-04-03T16:00:18;8.75;;;3.53;;
75112;SDS011;63692;47.338;8.520;2023-04-03T16:02:45;4.35;;;2.40;;
75112;SDS011;63692;47.338;8.520;2023-04-03T16:05:12;4.45;;;2.72;;
